Bookmark and Share
Track history (hours):
 

Java Sea

More information available from US FCC via Universal Licensing System and Coast Guard Vessel Documentation Center.

Last reported at 2013-Jul-08 05:14 UTC. Time now 2014-Apr-16 05:13 UTC.
Position N 49°46' W 127°12'.
Warning: this ship's position is months out of date.

Length 129 m; draft 4.2 m.

Type: Tug. MMSI: 366910940.

NotesDate/timePositionNaut miles runAvg speedWind from/ knotsBaromVisibWave heightAir tempDewpointWater temp
2013-Jul-08 05:14N 49°46' W 127°12'6 6.6
2013-Jul-08 04:23N 49°41' W 127°07'6 6.5
2013-Jul-08 03:31N 49°36' W 127°02'6 6.0
2013-Jul-08 02:27N 49°31' W 126°58'5 5.6
2013-Jul-08 01:33N 49°26' W 126°54'5 5.1
2013-Jul-08 00:33N 49°22' W 126°50'6 6.3
2013-Jul-07 23:33N 49°18' W 126°42'7 7.3
2013-Jul-07 22:33N 49°14' W 126°33'8 7.8
2013-Jul-07 21:33N 49°09' W 126°23'8 8.0
2013-Jul-07 20:33N 49°05' W 126°13'8 7.9
2013-Jul-07 19:34N 49°00' W 126°03'8 8.1
2013-Jul-07 18:33N 48°55' W 125°53'8 8.2
2013-Jul-07 17:33N 48°51' W 125°43'8 8.0
2013-Jul-07 16:34N 48°47' W 125°32'8 8.0
2013-Jul-07 15:33N 48°43' W 125°22'52 8.6
2013-Jul-07 09:32N 48°22' W 124°11'9 8.9
2013-Jul-07 08:33N 48°18' W 123°59'9 8.9
2013-Jul-07 07:32N 48°17' W 123°45'9 9.4
2013-Jul-07 06:33N 48°15' W 123°31'9 9.2
2013-Jul-07 05:32N 48°14' W 123°18'9 9.5
2013-Jul-07 04:33N 48°13' W 123°04'10 9.8
2013-Jul-07 03:33N 48°12' W 122°49'910.0
2013-Jul-07 02:38N 48°06' W 122°39'110.2
2013-Jul-07 02:33N 48°05' W 122°39'7 9.7
2013-Jul-07 01:48N 47°58' W 122°34'310.5
2013-Jul-07 01:33N 47°57' W 122°31'015.3
2013-Jul-07 01:33N 47°57' W 122°31'9 9.0
2013-Jul-07 00:33N 47°48' W 122°26'0 0.0
2013-Jul-07 00:33N 47°48' W 122°26'9 9.3
2013-Jul-06 23:34N 47°39' W 122°27'0 3.5
2013-Jul-06 23:33N 47°39' W 122°27'9 9.0
2013-Jul-06 22:32N 47°30' W 122°25'8 8.4
2013-Jul-06 21:33N 47°22' W 122°21'1 9.4
2013-Jul-06 21:27N 47°22' W 122°22'5 6.0
2013-Jul-06 20:33N 47°17' W 122°25'0 0.0
2013-Jul-06 19:33N 47°17' W 122°25'0 0.0
2013-Jul-06 18:32N 47°17' W 122°25'0 0.0
2013-Jul-06 17:33N 47°17' W 122°25'2 2.1
2013-Jul-06 16:33N 47°18' W 122°27'0 9.7
2013-Jul-06 16:31N 47°18' W 122°28'9 9.3
2013-Jul-06 15:33N 47°27' W 122°25'0 8.6
2013-Jul-06 15:31N 47°27' W 122°25'1010.9
2013-Jul-06 14:33N 47°37' W 122°28'0 8.6
2013-Jul-06 14:31N 47°38' W 122°28'4 3.9
2013-Jul-06 13:33N 47°40' W 122°24'0 1.0
2013-Jul-06 13:31N 47°40' W 122°24'0 0.1
2013-Jul-06 12:34N 47°40' W 122°23'0 0.9
2013-Jul-06 12:31N 47°40' W 122°24'0 0.0
2013-Jul-06 11:33N 47°40' W 122°23'0 0.0
2013-Jul-06 11:31N 47°40' W 122°23'0 0.0
2013-Jul-06 10:33N 47°40' W 122°23'0 0.0
2013-Jul-06 10:30N 47°40' W 122°23'0 0.0
2013-Jul-06 09:33N 47°40' W 122°23'0 0.0
2013-Jul-06 09:30N 47°40' W 122°23'0 0.0
2013-Jul-06 08:33N 47°40' W 122°24'0 0.7
2013-Jul-06 08:30N 47°40' W 122°23'0 0.0
2013-Jul-06 07:33N 47°40' W 122°23'0 0.0
2013-Jul-06 07:30N 47°40' W 122°23'0 0.0
2013-Jul-06 06:29N 47°40' W 122°23'0 0.0
2013-Jul-06 05:33N 47°40' W 122°23'0 0.0
2013-Jul-06 05:19N 47°40' W 122°23'0 0.0
2013-Jul-06 04:34N 47°40' W 122°23'0 0.5
2013-Jul-06 04:29N 47°40' W 122°24'0 0.0
2013-Jul-06 03:33N 47°40' W 122°23'0 0.0
2013-Jul-06 03:29N 47°40' W 122°23'0 0.0
2013-Jul-06 02:33N 47°40' W 122°23'0 0.0
2013-Jul-06 02:29N 47°40' W 122°23'0 0.0
2013-Jul-06 01:33N 47°40' W 122°23'0 0.0
2013-Jul-06 01:33N 47°40' W 122°23'0 0.0
2013-Jul-06 00:33N 47°40' W 122°24'018.2
2013-Jul-06 00:33N 47°40' W 122°23'0 0.0
2013-Jul-05 23:34N 47°40' W 122°23'0 0.0
2013-Jul-05 23:33N 47°40' W 122°23'0 0.0
2013-Jul-05 22:33N 47°40' W 122°23'0 0.0
2013-Jul-05 22:33N 47°40' W 122°23'0 0.0
2013-Jul-05 21:34N 47°40' W 122°23'0 3.2
2013-Jul-05 21:33N 47°40' W 122°24'0 0.0
2013-Jul-05 20:33N 47°40' W 122°24'0 0.0
2013-Jul-05 20:33N 47°40' W 122°24'0 0.0
2013-Jul-05 19:33N 47°40' W 122°23'0 0.0
2013-Jul-05 19:32N 47°40' W 122°23'0 0.0
2013-Jul-05 18:34N 47°40' W 122°23'0 0.0
2013-Jul-05 18:32N 47°40' W 122°23'0 0.0
2013-Jul-05 17:34N 47°40' W 122°23'0 0.0
2013-Jul-05 17:32N 47°40' W 122°23'0 0.0
2013-Jul-05 16:34N 47°40' W 122°23'0 0.0
2013-Jul-05 16:32N 47°40' W 122°23'0 0.0
2013-Jul-05 15:34N 47°40' W 122°23'0 0.0
2013-Jul-05 15:32N 47°40' W 122°23'0 0.0
2013-Jul-05 14:33N 47°40' W 122°23'0 0.0
2013-Jul-05 14:32N 47°40' W 122°23'0 0.0
2013-Jul-05 13:33N 47°40' W 122°23'0 0.0
2013-Jul-05 13:31N 47°40' W 122°23'0 0.0
2013-Jul-05 12:33N 47°40' W 122°23'0 0.0
2013-Jul-05 12:31N 47°40' W 122°23'0 0.0
2013-Jul-05 11:33N 47°40' W 122°23'0 0.0
2013-Jul-05 11:31N 47°40' W 122°23'0 0.0
2013-Jul-05 10:33N 47°40' W 122°23'0 0.0
2013-Jul-05 10:31N 47°40' W 122°23'0 0.0
2013-Jul-05 09:34N 47°40' W 122°23'0 0.0
2013-Jul-05 09:31N 47°40' W 122°23'0 0.0
2013-Jul-05 08:33N 47°40' W 122°23'0 0.0
2013-Jul-05 08:31N 47°40' W 122°23'0 0.0
2013-Jul-05 07:33N 47°40' W 122°24'0 0.0
2013-Jul-05 07:30N 47°40' W 122°24'0 0.0
2013-Jul-05 06:33N 47°40' W 122°23'0 0.0
2013-Jul-05 06:30N 47°40' W 122°23'0 0.0
2013-Jul-05 05:50N 47°40' W 122°23'0 0.0
2013-Jul-05 05:34N 47°40' W 122°23'0 0.0
2013-Jul-05 04:33N 47°40' W 122°23'0 0.7
2013-Jul-05 04:30N 47°40' W 122°24'0 0.0
2013-Jul-05 03:33N 47°40' W 122°23'0 0.0
2013-Jul-05 03:30N 47°40' W 122°23'0 0.0
2013-Jul-05 02:33N 47°40' W 122°23'0 0.0
2013-Jul-05 02:30N 47°40' W 122°23'0 0.0
2013-Jul-05 01:33N 47°40' W 122°23'0 0.0
2013-Jul-05 01:29N 47°40' W 122°23'0 0.0
2013-Jul-05 00:33N 47°40' W 122°23'0 0.6
2013-Jul-05 00:29N 47°40' W 122°24'0 0.0
2013-Jul-04 23:34N 47°40' W 122°23'0 0.0
2013-Jul-04 23:33N 47°40' W 122°23'0 0.0
2013-Jul-04 22:33N 47°40' W 122°23'0 0.0
2013-Jul-04 22:29N 47°40' W 122°23'0 0.0
2013-Jul-04 21:33N 47°40' W 122°23'0 0.0
2013-Jul-04 21:29N 47°40' W 122°23'0 0.0
2013-Jul-04 20:33N 47°40' W 122°23'0 0.0
2013-Jul-04 20:29N 47°40' W 122°23'0 0.2
2013-Jul-04 19:33N 47°40' W 122°24'0 4.3
2013-Jul-04 19:33N 47°40' W 122°24'1 1.1
2013-Jul-04 18:33N 47°41' W 122°25'090.6
2013-Jul-04 18:33N 47°41' W 122°25'5 4.6
2013-Jul-04 17:33N 47°45' W 122°24'0 8.3
2013-Jul-04 17:33N 47°45' W 122°24'1 0.6
2013-Jul-04 16:33N 47°46' W 122°25'0 0.0
2013-Jul-04 16:33N 47°46' W 122°25'6 6.0
2013-Jul-04 15:34N 47°40' W 122°24'0 0.0
2013-Jul-04 15:33N 47°40' W 122°24'0 0.3
2013-Jul-04 14:34N 47°40' W 122°23'0 0.0
2013-Jul-04 14:33N 47°40' W 122°23'0 0.0
2013-Jul-04 13:34N 47°40' W 122°23'0 0.0
2013-Jul-04 13:33N 47°40' W 122°23'0 0.0
2013-Jul-04 12:34N 47°40' W 122°23'0 0.0
2013-Jul-04 12:32N 47°40' W 122°23'0 0.0
2013-Jul-04 11:34N 47°40' W 122°24'0 1.8
2013-Jul-04 11:32N 47°40' W 122°23'0 0.0
2013-Jul-04 10:33N 47°40' W 122°23'0 0.0
2013-Jul-04 10:32N 47°40' W 122°23'0 0.0
2013-Jul-04 09:34N 47°40' W 122°23'0 0.0
2013-Jul-04 09:32N 47°40' W 122°23'0 0.0
2013-Jul-04 08:34N 47°40' W 122°24'0 0.0
2013-Jul-04 08:32N 47°40' W 122°24'0 0.0
2013-Jul-04 07:34N 47°40' W 122°23'0 0.0
2013-Jul-04 07:32N 47°40' W 122°23'0 0.0
2013-Jul-04 06:33N 47°40' W 122°23'0 0.0
2013-Jul-04 06:31N 47°40' W 122°23'0 0.0
2013-Jul-04 05:33N 47°40' W 122°23'0 0.0
2013-Jul-04 05:11N 47°40' W 122°23'0 0.1
2013-Jul-04 04:33N 47°40' W 122°24'0 0.0
2013-Jul-04 04:31N 47°40' W 122°24'0 0.0
2013-Jul-04 03:33N 47°40' W 122°23'0 0.0
2013-Jul-04 03:31N 47°40' W 122°23'0 0.0
2013-Jul-04 02:33N 47°40' W 122°23'0 0.1
2013-Jul-04 02:31N 47°40' W 122°23'0 0.0
2013-Jul-04 01:34N 47°40' W 122°23'0 0.0
2013-Jul-04 01:30N 47°40' W 122°23'0 0.0
2013-Jul-04 00:33N 47°40' W 122°24'0 0.8
2013-Jul-04 00:30N 47°40' W 122°23'0 0.0
2013-Jul-03 23:33N 47°40' W 122°23'0 0.1
2013-Jul-03 23:30N 47°40' W 122°23'0 0.0
2013-Jul-03 22:33N 47°40' W 122°24'0 0.0
2013-Jul-03 22:30N 47°40' W 122°24'0 0.0
2013-Jul-03 21:34N 47°40' W 122°23'0 0.7
2013-Jul-03 21:30N 47°40' W 122°24'0 0.0
2013-Jul-03 20:33N 47°40' W 122°23'0 0.0
2013-Jul-03 20:30N 47°40' W 122°23'0 0.0
2013-Jul-03 19:33N 47°40' W 122°23'0 0.0
2013-Jul-03 19:30N 47°40' W 122°23'0 0.0
2013-Jul-03 18:33N 47°40' W 122°23'0 0.0
2013-Jul-03 18:29N 47°40' W 122°23'0 0.0
2013-Jul-03 17:33N 47°40' W 122°23'0 0.6
2013-Jul-03 17:29N 47°40' W 122°24'0 0.0
2013-Jul-03 16:34N 47°40' W 122°23'0 0.0
2013-Jul-03 16:29N 47°40' W 122°23'0 0.0
2013-Jul-03 15:34N 47°40' W 122°23'0 0.5
2013-Jul-03 15:29N 47°40' W 122°24'0 0.0
2013-Jul-03 14:33N 47°40' W 122°23'0 0.0
2013-Jul-03 14:29N 47°40' W 122°23'0 0.0
2013-Jul-03 13:34N 47°40' W 122°23'0 0.0
2013-Jul-03 13:34N 47°40' W 122°23'0 0.0
2013-Jul-02 22:27N 47°40' W 122°23'0 0.0
2013-Jul-02 22:26N 47°40' W 122°23'0 0.0
2013-Jul-02 21:33N 47°40' W 122°24'0 0.0
2013-Jul-02 21:31N 47°40' W 122°24'0 0.0
2013-Jul-02 20:33N 47°40' W 122°23'0 0.0
2013-Jul-02 20:31N 47°40' W 122°23'0 0.0
2013-Jul-02 18:18N 47°40' W 122°23'0 0.8
2013-Jul-02 18:15N 47°40' W 122°24'  
2013-Jun-29 16:48N 47°40' W 122°23'0 0.0
2013-Jun-29 16:33N 47°40' W 122°23'0 0.0
2013-Jun-29 16:33N 47°40' W 122°23'0 0.0
2013-Jun-29 15:33N 47°40' W 122°23'0 0.0
2013-Jun-29 15:32N 47°40' W 122°23'0 0.0
2013-Jun-29 14:33N 47°40' W 122°23'0 0.0
2013-Jun-29 14:32N 47°40' W 122°23'0 0.0
2013-Jun-29 13:33N 47°40' W 122°23'0 0.3
2013-Jun-29 13:32N 47°40' W 122°23'0 0.0
2013-Jun-29 12:33N 47°40' W 122°23'0 0.3
2013-Jun-29 12:32N 47°40' W 122°23'0 0.0
2013-Jun-29 11:33N 47°40' W 122°23'0 0.0
2013-Jun-29 11:32N 47°40' W 122°23'0 0.0
2013-Jun-29 10:33N 47°40' W 122°23'0 0.0
2013-Jun-29 10:32N 47°40' W 122°23'0 0.0
2013-Jun-29 09:33N 47°40' W 122°23'0 0.2
2013-Jun-29 09:31N 47°40' W 122°23'0 0.0
2013-Jun-29 08:33N 47°40' W 122°23'0 0.0
2013-Jun-29 08:31N 47°40' W 122°23'0 0.0
2013-Jun-29 07:33N 47°40' W 122°23'0 0.0
2013-Jun-29 07:31N 47°40' W 122°23'0 0.0
2013-Jun-29 06:33N 47°40' W 122°23'0 0.0
2013-Jun-29 06:31N 47°40' W 122°23'0 0.0
2013-Jun-29 05:46N 47°40' W 122°23'0 0.0
2013-Jun-29 05:33N 47°40' W 122°23'0 0.0
2013-Jun-29 04:33N 47°40' W 122°23'0 0.0
2013-Jun-29 04:31N 47°40' W 122°23'0 0.0
2013-Jun-29 03:33N 47°40' W 122°23'0 0.0
2013-Jun-29 03:30N 47°40' W 122°23'0 0.0
2013-Jun-28 18:21N 47°40' W 122°23'0 0.0
2013-Jun-28 17:34N 47°40' W 122°23'0 0.0
2013-Jun-28 17:34N 47°40' W 122°23'0 0.0
2013-Jun-28 16:34N 47°40' W 122°23'0 0.0
2013-Jun-28 16:33N 47°40' W 122°23'0 0.3
2013-Jun-28 15:33N 47°40' W 122°24'0 0.0
2013-Jun-28 15:33N 47°40' W 122°24'3 3.4
2013-Jun-28 14:33N 47°37' W 122°26'8 8.4
2013-Jun-28 13:33N 47°29' W 122°24'7 7.5
2013-Jun-28 12:34N 47°21' W 122°23'  

Dump ship's entire track history

sailing weather and tide predictions

Java Sea — WDB5557 — position and weather